Time;durP1;ratioP1;P1;durP2;ratioP2;P2;SDS_P1;SDS_P2;PMS_P1;PMS_P2;Temp;Humidity;BMP_temperature;BMP_pressure;BME280_temperature;BME280_humidity;BME280_pressure;Samples;Min_cycle;Max_cycle;Signal;HPM_P1;HPM_P2
2022/10/23 00:00:17;;;;;;;;;;;11.80;99.90;;;;;;5055120;28;20015;-75
2022/10/23 00:02:42;;;;;;;;;;;11.90;99.90;;;;;;5034961;28;19932;-75
2022/10/23 00:05:08;;;;;;;;;;;11.90;99.90;;;;;;5049180;28;20558;-76
2022/10/23 00:07:34;;;;;;;;;;;11.90;99.90;;;;;;5044989;28;20031;-76
2022/10/23 00:09:59;;;;;;;;;;;11.90;99.90;;;;;;5033759;28;19967;-76
2022/10/23 00:12:27;;;;;;;;;;;11.90;99.90;;;;;;5053095;28;19917;-76
2022/10/23 00:14:52;;;;;;;;;;;11.80;99.90;;;;;;5030799;28;19966;-76
2022/10/23 00:17:18;;;;;;;;;;;11.80;99.90;;;;;;5052025;28;19913;-76
2022/10/23 00:19:43;;;;;;;;;;;11.80;99.90;;;;;;5035111;28;19966;-76
2022/10/23 00:22:10;;;;;;;;;;;11.70;99.90;;;;;;5036440;28;19929;-76
2022/10/23 00:24:35;;;;;;;;;;;11.60;99.90;;;;;;5034625;28;19913;-76
2022/10/23 00:27:01;;;;;;;;;;;11.60;99.90;;;;;;5053221;28;20345;-76
2022/10/23 00:29:27;;;;;;;;;;;11.60;99.90;;;;;;5053082;28;19966;-75
2022/10/23 00:31:52;;;;;;;;;;;11.60;99.90;;;;;;5045929;28;19912;-76
2022/10/23 00:34:18;;;;;;;;;;;11.60;99.90;;;;;;5054089;28;20003;-75
2022/10/23 00:36:44;;;;;;;;;;;11.70;99.90;;;;;;5055513;28;19916;-76
2022/10/23 00:39:09;;;;;;;;;;;11.70;99.90;;;;;;5053352;28;20007;-76
2022/10/23 00:41:35;;;;;;;;;;;11.70;99.90;;;;;;5050912;28;20326;-75
2022/10/23 00:44:30;;;;;;;;;;;11.60;99.90;;;;;;5049171;28;19920;-75
2022/10/23 00:46:56;;;;;;;;;;;11.60;99.90;;;;;;5044938;28;19920;-75
2022/10/23 00:49:22;;;;;;;;;;;11.50;99.90;;;;;;5052350;28;20015;-76
2022/10/23 00:51:50;;;;;;;;;;;11.40;99.90;;;;;;5052434;28;20051;-75
2022/10/23 00:54:16;;;;;;;;;;;11.40;99.90;;;;;;5048293;28;19912;-75
2022/10/23 00:56:43;;;;;;;;;;;11.40;99.90;;;;;;5052176;28;20023;-75
2022/10/23 00:59:09;;;;;;;;;;;11.40;99.90;;;;;;5046692;28;20326;-75
2022/10/23 01:01:35;;;;;;;;;;;11.30;99.90;;;;;;5030776;28;19972;-75
2022/10/23 01:04:02;;;;;;;;;;;11.30;99.90;;;;;;5051526;28;20003;-75
2022/10/23 01:06:27;;;;;;;;;;;11.30;99.90;;;;;;5052032;28;20523;-75
2022/10/23 01:09:08;;;;;;;;;;;11.30;99.90;;;;;;5032457;28;19920;-75
2022/10/23 01:11:51;;;;;;;;;;;11.30;99.90;;;;;;5052544;28;20031;-75
2022/10/23 01:14:25;;;;;;;;;;;11.40;99.90;;;;;;5035943;28;19913;-75
2022/10/23 01:17:00;;;;;;;;;;;11.40;99.90;;;;;;5052188;28;19913;-75
2022/10/23 01:19:52;;;;;;;;;;;11.40;99.90;;;;;;5033721;28;19919;-76
2022/10/23 01:22:25;;;;;;;;;;;11.40;99.90;;;;;;5051238;28;20015;-75
2022/10/23 01:24:59;;;;;;;;;;;11.40;99.90;;;;;;5033355;28;19913;-76
2022/10/23 01:27:45;;;;;;;;;;;11.50;99.90;;;;;;5055106;28;19951;-75
2022/10/23 01:30:12;;;;;;;;;;;11.50;99.90;;;;;;5037891;28;20007;-75
2022/10/23 01:32:49;;;;;;;;;;;11.60;99.90;;;;;;5034499;28;19913;-75
2022/10/23 01:35:23;;;;;;;;;;;11.60;99.90;;;;;;5055413;28;19956;-75
2022/10/23 01:37:51;;;;;;;;;;;11.70;99.90;;;;;;5055978;28;19958;-75
2022/10/23 01:40:23;;;;;;;;;;;11.70;99.90;;;;;;5048461;28;19916;-76
2022/10/23 01:42:52;;;;;;;;;;;11.70;99.90;;;;;;5037738;28;19913;-75
2022/10/23 01:45:31;;;;;;;;;;;11.70;99.90;;;;;;5047751;28;19913;-76
2022/10/23 01:47:57;;;;;;;;;;;11.70;99.90;;;;;;5050804;28;20317;-75
2022/10/23 01:50:23;;;;;;;;;;;11.70;99.90;;;;;;5054255;28;19912;-75
2022/10/23 01:52:49;;;;;;;;;;;11.80;99.90;;;;;;5031494;28;19913;-75
2022/10/23 01:55:15;;;;;;;;;;;11.70;99.90;;;;;;5035686;28;19912;-79
2022/10/23 01:57:42;;;;;;;;;;;11.80;99.90;;;;;;5036918;28;19952;-75
2022/10/23 02:00:10;;;;;;;;;;;11.80;99.90;;;;;;5054026;28;19909;-75
2022/10/23 02:02:36;;;;;;;;;;;11.80;99.90;;;;;;5037146;28;19960;-79
2022/10/23 02:05:05;;;;;;;;;;;11.80;99.90;;;;;;5056846;28;19962;-75
2022/10/23 02:07:30;;;;;;;;;;;11.80;99.90;;;;;;5055852;28;19917;-75
2022/10/23 02:09:57;;;;;;;;;;;11.70;99.90;;;;;;5054100;28;19948;-76
2022/10/23 02:12:45;;;;;;;;;;;11.70;99.90;;;;;;5052833;28;19913;-77
2022/10/23 02:15:17;;;;;;;;;;;11.70;99.90;;;;;;5032002;28;19960;-78
2022/10/23 02:17:50;;;;;;;;;;;11.70;99.90;;;;;;5036646;28;20003;-77
2022/10/23 02:20:21;;;;;;;;;;;11.70;99.90;;;;;;5053453;28;19944;-79
2022/10/23 02:23:13;;;;;;;;;;;11.70;99.90;;;;;;5034196;28;20271;-77
2022/10/23 02:25:42;;;;;;;;;;;11.70;99.90;;;;;;5052573;28;20200;-76
2022/10/23 02:28:09;;;;;;;;;;;11.80;99.90;;;;;;5031896;28;19913;-76
2022/10/23 02:30:36;;;;;;;;;;;11.80;99.90;;;;;;5054545;28;22092;-78
2022/10/23 02:33:02;;;;;;;;;;;11.80;99.90;;;;;;5035754;28;19935;-79
2022/10/23 02:35:27;;;;;;;;;;;11.70;99.90;;;;;;5036353;28;20296;-76
2022/10/23 02:37:54;;;;;;;;;;;11.70;99.90;;;;;;5055033;28;20288;-75
2022/10/23 02:40:21;;;;;;;;;;;11.70;99.90;;;;;;5050911;28;20362;-75
2022/10/23 02:42:52;;;;;;;;;;;11.70;99.90;;;;;;5055658;28;20331;-75
2022/10/23 02:45:24;;;;;;;;;;;11.70;99.90;;;;;;5037868;28;19917;-75
2022/10/23 02:47:56;;;;;;;;;;;11.70;99.90;;;;;;5036929;28;20288;-76
2022/10/23 02:50:28;;;;;;;;;;;11.70;99.90;;;;;;5044119;28;19920;-78
2022/10/23 02:53:14;;;;;;;;;;;11.60;99.90;;;;;;5042787;28;20227;-75
2022/10/23 02:55:39;;;;;;;;;;;11.60;99.90;;;;;;5034366;28;19917;-76
2022/10/23 02:58:13;;;;;;;;;;;11.60;99.90;;;;;;5042920;28;19966;-78
2022/10/23 03:00:41;;;;;;;;;;;11.60;99.90;;;;;;5055592;28;19963;-76
2022/10/23 03:03:15;;;;;;;;;;;11.50;99.90;;;;;;5031490;28;19928;-77
2022/10/23 03:05:43;;;;;;;;;;;11.50;99.90;;;;;;5033344;28;20383;-78
2022/10/23 03:08:10;;;;;;;;;;;11.50;99.90;;;;;;5032437;28;19917;-75
2022/10/23 03:10:35;;;;;;;;;;;11.50;99.90;;;;;;5034242;28;19913;-78
2022/10/23 03:13:01;;;;;;;;;;;11.50;99.90;;;;;;5033064;28;19913;-75
2022/10/23 03:15:27;;;;;;;;;;;11.50;99.90;;;;;;5034366;28;19996;-76
2022/10/23 03:17:52;;;;;;;;;;;11.50;99.90;;;;;;5035004;28;19932;-75
2022/10/23 03:20:18;;;;;;;;;;;11.50;99.90;;;;;;5028614;28;19967;-78
2022/10/23 03:22:43;;;;;;;;;;;11.50;99.90;;;;;;5031165;28;19928;-75
2022/10/23 03:25:09;;;;;;;;;;;11.60;99.90;;;;;;5029808;28;19917;-75
2022/10/23 03:27:35;;;;;;;;;;;11.50;99.90;;;;;;5032591;28;20198;-78
2022/10/23 03:30:01;;;;;;;;;;;11.50;99.90;;;;;;5030673;28;19928;-75
2022/10/23 03:32:26;;;;;;;;;;;11.50;99.90;;;;;;5034580;28;19917;-76
2022/10/23 03:34:52;;;;;;;;;;;11.50;99.90;;;;;;5033577;28;19924;-77
2022/10/23 03:37:18;;;;;;;;;;;11.50;99.90;;;;;;5028432;28;19913;-75
2022/10/23 03:39:43;;;;;;;;;;;11.50;99.90;;;;;;5033927;28;19939;-75
2022/10/23 03:42:09;;;;;;;;;;;11.50;99.90;;;;;;5032864;28;21432;-76
2022/10/23 03:44:34;;;;;;;;;;;11.50;99.90;;;;;;5032668;28;20228;-75
2022/10/23 03:47:00;;;;;;;;;;;11.60;99.90;;;;;;5032588;28;19920;-75
2022/10/23 03:49:26;;;;;;;;;;;11.60;99.90;;;;;;5033108;28;19913;-75
2022/10/23 03:51:51;;;;;;;;;;;11.60;99.90;;;;;;5033844;28;19917;-79
2022/10/23 03:54:21;;;;;;;;;;;11.60;99.90;;;;;;5029198;28;19963;-75
2022/10/23 03:56:47;;;;;;;;;;;11.60;99.90;;;;;;5033992;28;19917;-77
2022/10/23 03:59:12;;;;;;;;;;;11.60;99.90;;;;;;5032730;28;19920;-78
2022/10/23 04:01:38;;;;;;;;;;;11.60;99.90;;;;;;5030614;28;19919;-77
2022/10/23 04:04:03;;;;;;;;;;;11.60;99.90;;;;;;5027659;28;19929;-78
2022/10/23 04:06:29;;;;;;;;;;;11.70;99.90;;;;;;5027163;28;19917;-79
2022/10/23 04:08:55;;;;;;;;;;;11.60;99.90;;;;;;5032594;28;20315;-75
2022/10/23 04:11:20;;;;;;;;;;;11.70;99.90;;;;;;5033309;28;19952;-76
2022/10/23 04:13:46;;;;;;;;;;;11.60;99.90;;;;;;5029410;28;20398;-80
2022/10/23 04:16:12;;;;;;;;;;;11.60;99.90;;;;;;5033558;28;19945;-79
2022/10/23 04:18:39;;;;;;;;;;;11.50;99.90;;;;;;5030099;28;19917;-78
2022/10/23 04:21:04;;;;;;;;;;;11.40;99.90;;;;;;5033223;28;19945;-75
2022/10/23 04:23:30;;;;;;;;;;;11.40;99.90;;;;;;5033894;28;19992;-75
2022/10/23 04:25:56;;;;;;;;;;;11.40;99.90;;;;;;5033046;28;20264;-77
2022/10/23 04:28:22;;;;;;;;;;;11.40;99.90;;;;;;5032541;28;19917;-75
2022/10/23 04:30:48;;;;;;;;;;;11.40;99.90;;;;;;5034243;28;19964;-76
2022/10/23 04:33:13;;;;;;;;;;;11.40;99.90;;;;;;5033764;28;19971;-79
2022/10/23 04:35:39;;;;;;;;;;;11.50;99.90;;;;;;5032644;28;19923;-75
2022/10/23 04:38:05;;;;;;;;;;;11.50;99.90;;;;;;5033272;28;20004;-76
2022/10/23 04:40:30;;;;;;;;;;;11.50;99.90;;;;;;5032206;28;19914;-79
2022/10/23 04:42:56;;;;;;;;;;;11.50;99.90;;;;;;5028527;28;20219;-78
2022/10/23 04:45:21;;;;;;;;;;;11.50;99.90;;;;;;5032080;28;19913;-75
2022/10/23 04:47:47;;;;;;;;;;;11.60;99.90;;;;;;5033553;28;19948;-75
2022/10/23 04:50:28;;;;;;;;;;;11.70;99.90;;;;;;5031531;28;19921;-78
2022/10/23 04:52:54;;;;;;;;;;;11.70;99.90;;;;;;5033259;28;19913;-79
2022/10/23 04:55:20;;;;;;;;;;;11.70;99.90;;;;;;5033994;28;19920;-76
2022/10/23 04:57:45;;;;;;;;;;;11.70;99.90;;;;;;5037788;28;19917;-80
2022/10/23 05:00:12;;;;;;;;;;;11.60;99.90;;;;;;5035487;28;20318;-75
2022/10/23 05:02:38;;;;;;;;;;;11.70;99.90;;;;;;5040429;28;19917;-75
2022/10/23 05:05:04;;;;;;;;;;;11.70;99.90;;;;;;5057538;28;20339;-78
2022/10/23 05:07:29;;;;;;;;;;;11.70;99.90;;;;;;5055749;28;19913;-80
2022/10/23 05:09:55;;;;;;;;;;;11.70;99.90;;;;;;5056621;28;19916;-79
2022/10/23 05:12:21;;;;;;;;;;;11.70;99.90;;;;;;5038024;28;19914;-75
2022/10/23 05:14:47;;;;;;;;;;;11.80;99.90;;;;;;5038316;28;19917;-78
2022/10/23 05:17:15;;;;;;;;;;;11.80;99.90;;;;;;5036984;28;19923;-75
2022/10/23 05:19:44;;;;;;;;;;;11.80;99.90;;;;;;5055909;28;19920;-76
2022/10/23 05:22:11;;;;;;;;;;;11.80;99.90;;;;;;5056592;28;19927;-79
2022/10/23 05:24:36;;;;;;;;;;;11.70;99.90;;;;;;5056391;28;20414;-76
2022/10/23 05:27:02;;;;;;;;;;;11.70;99.90;;;;;;5035580;28;19920;-79
2022/10/23 05:29:27;;;;;;;;;;;11.80;99.90;;;;;;5056800;28;19940;-76
2022/10/23 05:31:55;;;;;;;;;;;11.80;99.90;;;;;;5055820;28;19917;-75
2022/10/23 05:34:21;;;;;;;;;;;11.90;99.90;;;;;;5038962;28;19964;-79
2022/10/23 05:36:47;;;;;;;;;;;11.80;99.90;;;;;;5037171;28;19913;-75
2022/10/23 05:39:13;;;;;;;;;;;11.90;99.90;;;;;;5056934;28;19970;-75
2022/10/23 05:41:38;;;;;;;;;;;11.90;99.90;;;;;;5036639;28;19924;-80
2022/10/23 05:44:04;;;;;;;;;;;11.90;99.90;;;;;;5054463;28;19917;-75
2022/10/23 05:46:30;;;;;;;;;;;11.90;99.90;;;;;;5057118;28;19955;-76
2022/10/23 05:48:55;;;;;;;;;;;12.00;99.90;;;;;;5054337;28;19917;-75
2022/10/23 05:51:21;;;;;;;;;;;12.10;99.90;;;;;;5053178;28;19919;-75
2022/10/23 05:53:48;;;;;;;;;;;12.10;99.90;;;;;;5051450;28;19983;-75
2022/10/23 05:56:14;;;;;;;;;;;12.10;99.90;;;;;;5046050;28;19912;-75
2022/10/23 05:58:39;;;;;;;;;;;12.20;99.90;;;;;;5036585;28;19921;-74
2022/10/23 06:01:06;;;;;;;;;;;12.30;99.90;;;;;;5050331;28;20201;-82
2022/10/23 06:03:32;;;;;;;;;;;12.40;99.90;;;;;;5053299;28;19931;-75
2022/10/23 06:05:58;;;;;;;;;;;12.40;99.90;;;;;;5055427;28;19917;-74
2022/10/23 06:08:24;;;;;;;;;;;12.50;99.90;;;;;;5036883;28;19917;-75
2022/10/23 06:10:49;;;;;;;;;;;12.60;99.90;;;;;;5032202;28;19980;-76
2022/10/23 06:13:15;;;;;;;;;;;12.60;99.90;;;;;;5055337;28;19909;-79
2022/10/23 06:15:41;;;;;;;;;;;12.60;99.90;;;;;;5037455;28;20006;-75
2022/10/23 06:18:06;;;;;;;;;;;12.60;99.90;;;;;;5053493;28;20308;-75
2022/10/23 06:20:36;;;;;;;;;;;12.60;99.90;;;;;;5048713;28;20364;-74
2022/10/23 06:23:02;;;;;;;;;;;12.60;99.90;;;;;;5038009;28;19913;-78
2022/10/23 06:25:28;;;;;;;;;;;12.60;99.90;;;;;;5055041;28;19975;-74
2022/10/23 06:27:53;;;;;;;;;;;12.60;99.90;;;;;;5049986;28;19944;-75
2022/10/23 06:30:19;;;;;;;;;;;12.70;99.90;;;;;;5036830;28;20217;-74
2022/10/23 06:32:45;;;;;;;;;;;12.70;99.90;;;;;;5037583;28;19916;-77
2022/10/23 06:35:10;;;;;;;;;;;12.70;99.90;;;;;;5054840;28;19913;-78
2022/10/23 06:37:36;;;;;;;;;;;12.80;99.90;;;;;;5055208;28;19917;-78
2022/10/23 06:40:02;;;;;;;;;;;12.80;99.90;;;;;;5053825;28;19909;-74
2022/10/23 06:42:28;;;;;;;;;;;12.80;99.90;;;;;;5047728;28;19917;-75
2022/10/23 06:44:54;;;;;;;;;;;12.80;99.90;;;;;;5052550;28;19940;-77
2022/10/23 06:47:19;;;;;;;;;;;12.90;99.90;;;;;;5032834;28;20264;-75
2022/10/23 06:49:45;;;;;;;;;;;12.90;99.90;;;;;;5052943;28;20028;-74
2022/10/23 06:52:10;;;;;;;;;;;13.00;99.90;;;;;;5025188;28;19913;-75
2022/10/23 06:54:36;;;;;;;;;;;13.00;99.90;;;;;;5052743;28;19963;-75
2022/10/23 06:57:02;;;;;;;;;;;13.00;99.90;;;;;;5034483;28;19953;-74
2022/10/23 06:59:27;;;;;;;;;;;13.00;99.90;;;;;;5050526;28;20212;-75
2022/10/23 07:01:53;;;;;;;;;;;13.10;99.90;;;;;;5049088;28;20334;-78
2022/10/23 07:04:19;;;;;;;;;;;13.10;99.90;;;;;;5020097;28;20011;-76
2022/10/23 07:06:44;;;;;;;;;;;13.20;99.90;;;;;;5032425;28;19949;-78
2022/10/23 07:09:10;;;;;;;;;;;13.30;99.90;;;;;;5037516;28;20220;-77
2022/10/23 07:11:36;;;;;;;;;;;13.30;99.90;;;;;;5034924;28;19921;-78
2022/10/23 07:14:02;;;;;;;;;;;13.30;99.90;;;;;;5049642;28;19927;-77
2022/10/23 07:16:27;;;;;;;;;;;13.30;99.90;;;;;;5048381;28;20319;-75
2022/10/23 07:18:58;;;;;;;;;;;13.40;99.90;;;;;;5053540;28;19919;-77
2022/10/23 07:21:28;;;;;;;;;;;13.40;99.90;;;;;;5034578;28;19928;-77
2022/10/23 07:23:54;;;;;;;;;;;13.40;99.90;;;;;;5052257;28;19917;-76
2022/10/23 07:26:19;;;;;;;;;;;13.50;99.90;;;;;;5052239;28;20219;-77
2022/10/23 07:28:46;;;;;;;;;;;13.50;99.90;;;;;;5053274;28;19913;-75
2022/10/23 07:31:12;;;;;;;;;;;13.60;99.90;;;;;;5054166;28;19920;-77
2022/10/23 07:33:38;;;;;;;;;;;13.60;99.90;;;;;;5052665;28;19913;-75
2022/10/23 07:36:04;;;;;;;;;;;13.60;99.90;;;;;;5034477;28;19934;-77
2022/10/23 07:38:30;;;;;;;;;;;13.70;99.90;;;;;;5049899;28;19999;-76
2022/10/23 07:40:57;;;;;;;;;;;13.70;99.90;;;;;;5050174;28;20032;-77
2022/10/23 07:43:24;;;;;;;;;;;13.70;99.90;;;;;;5035020;28;20315;-79
2022/10/23 07:45:49;;;;;;;;;;;13.70;99.90;;;;;;5053023;28;19924;-79
2022/10/23 07:48:15;;;;;;;;;;;13.70;99.90;;;;;;5050123;28;19913;-77
2022/10/23 07:50:41;;;;;;;;;;;13.70;99.90;;;;;;5050763;28;20197;-80
2022/10/23 07:53:13;;;;;;;;;;;13.80;99.90;;;;;;5049456;28;20011;-76
2022/10/23 07:55:39;;;;;;;;;;;13.80;99.90;;;;;;5047443;28;19924;-81
2022/10/23 07:58:04;;;;;;;;;;;13.80;99.90;;;;;;5033869;28;19917;-75
2022/10/23 08:00:30;;;;;;;;;;;13.90;99.90;;;;;;5031006;28;19999;-76
2022/10/23 08:02:56;;;;;;;;;;;13.90;99.90;;;;;;5049426;28;20175;-78
2022/10/23 08:05:21;;;;;;;;;;;13.90;99.90;;;;;;5035022;28;19935;-78
2022/10/23 08:07:47;;;;;;;;;;;13.90;99.90;;;;;;5034088;28;19916;-75
2022/10/23 08:10:13;;;;;;;;;;;13.90;99.90;;;;;;5032828;28;19920;-78
2022/10/23 08:12:38;;;;;;;;;;;13.90;99.90;;;;;;5027801;28;20066;-74
2022/10/23 08:15:04;;;;;;;;;;;14.00;99.90;;;;;;5034169;28;19920;-75
2022/10/23 08:17:30;;;;;;;;;;;14.00;99.90;;;;;;5034481;28;19981;-80
2022/10/23 08:19:55;;;;;;;;;;;14.00;99.90;;;;;;5052070;28;19913;-76
2022/10/23 08:22:21;;;;;;;;;;;14.10;99.90;;;;;;5035776;28;19921;-74
2022/10/23 08:24:47;;;;;;;;;;;14.10;99.90;;;;;;5034674;28;19921;-75
2022/10/23 08:27:12;;;;;;;;;;;14.10;99.90;;;;;;5050865;28;20239;-74
2022/10/23 08:29:38;;;;;;;;;;;14.20;99.90;;;;;;5053428;28;19921;-75
2022/10/23 08:32:04;;;;;;;;;;;14.20;99.90;;;;;;5053433;28;19921;-74
2022/10/23 08:34:30;;;;;;;;;;;14.20;99.90;;;;;;5056333;28;19912;-74
2022/10/23 08:36:56;;;;;;;;;;;14.30;99.90;;;;;;5053381;28;19919;-74
2022/10/23 08:39:21;;;;;;;;;;;14.30;99.90;;;;;;5057040;28;19912;-74
2022/10/23 08:41:49;;;;;;;;;;;14.30;99.90;;;;;;5034780;28;19929;-74
2022/10/23 08:44:47;;;;;;;;;;;14.30;99.90;;;;;;5028502;28;19913;-75
2022/10/23 08:47:18;;;;;;;;;;;14.40;99.90;;;;;;4956634;29;19918;-76
2022/10/23 08:49:55;;;;;;;;;;;14.40;99.90;;;;;;4962085;28;19926;-75
2022/10/23 08:52:41;;;;;;;;;;;14.40;99.90;;;;;;4956931;29;19942;-74
2022/10/23 08:55:20;;;;;;;;;;;14.40;99.90;;;;;;4940032;29;19925;-75
2022/10/23 08:58:01;;;;;;;;;;;14.50;99.90;;;;;;4939064;29;19923;-74
2022/10/23 09:00:27;;;;;;;;;;;14.50;99.90;;;;;;4956289;29;20266;-75
2022/10/23 09:02:53;;;;;;;;;;;14.50;99.90;;;;;;4953679;28;19926;-74
2022/10/23 09:05:35;;;;;;;;;;;14.50;99.90;;;;;;4952188;28;19914;-75
2022/10/23 09:08:19;;;;;;;;;;;14.50;99.90;;;;;;4934341;29;19929;-74
2022/10/23 09:10:58;;;;;;;;;;;14.50;99.90;;;;;;4953825;28;19953;-74
2022/10/23 09:13:33;;;;;;;;;;;14.60;99.90;;;;;;4936823;29;20507;-74
2022/10/23 09:16:12;;;;;;;;;;;14.60;99.90;;;;;;4952979;29;19919;-74
2022/10/23 09:18:39;;;;;;;;;;;14.60;99.90;;;;;;4952241;29;19922;-74
2022/10/23 09:21:07;;;;;;;;;;;14.70;99.90;;;;;;4940052;29;20326;-74
2022/10/23 09:23:33;;;;;;;;;;;14.70;99.90;;;;;;5015241;28;19921;-74
2022/10/23 09:26:00;;;;;;;;;;;14.80;99.90;;;;;;5054042;28;19923;-74
2022/10/23 09:28:28;;;;;;;;;;;14.80;99.90;;;;;;5054545;28;19913;-75
2022/10/23 09:31:04;;;;;;;;;;;14.90;99.90;;;;;;5054412;28;20660;-77
2022/10/23 09:33:31;;;;;;;;;;;14.90;99.90;;;;;;5054611;28;20330;-75
2022/10/23 09:36:01;;;;;;;;;;;14.90;99.90;;;;;;5052679;28;19913;-74
2022/10/23 09:38:37;;;;;;;;;;;15.00;99.90;;;;;;5052930;28;19914;-74
2022/10/23 09:41:16;;;;;;;;;;;15.00;99.90;;;;;;5038169;28;19917;-74
2022/10/23 09:43:42;;;;;;;;;;;15.00;99.90;;;;;;5055232;28;20019;-75
2022/10/23 09:46:08;;;;;;;;;;;15.10;99.90;;;;;;5054945;28;19912;-75
2022/10/23 09:48:34;;;;;;;;;;;15.10;99.90;;;;;;5054073;28;20003;-74
2022/10/23 09:51:01;;;;;;;;;;;15.10;99.90;;;;;;5052442;28;19913;-79
2022/10/23 09:53:37;;;;;;;;;;;15.10;99.90;;;;;;5054716;28;19916;-74
2022/10/23 09:56:06;;;;;;;;;;;15.10;99.90;;;;;;5051629;28;19912;-74
2022/10/23 09:58:33;;;;;;;;;;;15.20;99.90;;;;;;5053013;28;19909;-75
2022/10/23 10:00:59;;;;;;;;;;;15.20;99.90;;;;;;5053596;28;19932;-74
2022/10/23 10:03:25;;;;;;;;;;;15.20;99.90;;;;;;5055288;28;19917;-74
2022/10/23 10:06:01;;;;;;;;;;;15.20;99.90;;;;;;5054692;28;19928;-74
2022/10/23 10:08:47;;;;;;;;;;;15.20;99.90;;;;;;5050355;28;19921;-76
2022/10/23 10:11:19;;;;;;;;;;;15.20;99.90;;;;;;5034138;28;19916;-74
2022/10/23 10:14:20;;;;;;;;;;;15.20;99.90;;;;;;5019034;28;20004;-74
2022/10/23 10:16:52;;;;;;;;;;;15.20;99.90;;;;;;5020269;28;19936;-74
2022/10/23 10:19:24;;;;;;;;;;;15.30;99.90;;;;;;5047814;28;19936;-78
2022/10/23 10:21:52;;;;;;;;;;;15.30;99.90;;;;;;5054082;28;19927;-75
2022/10/23 10:24:44;;;;;;;;;;;15.30;99.90;;;;;;5053783;28;20308;-75
2022/10/23 10:27:13;;;;;;;;;;;15.30;99.90;;;;;;5020874;28;19913;-74
2022/10/23 10:29:52;;;;;;;;;;;15.30;99.90;;;;;;5053375;28;20015;-75
2022/10/23 10:32:18;;;;;;;;;;;15.40;99.90;;;;;;5045012;28;19920;-74
2022/10/23 10:35:07;;;;;;;;;;;15.40;99.90;;;;;;5049877;28;19917;-80
2022/10/23 10:37:51;;;;;;;;;;;15.40;99.90;;;;;;5052719;28;19920;-75
2022/10/23 10:40:22;;;;;;;;;;;15.50;99.90;;;;;;5052622;28;19971;-74
2022/10/23 10:42:48;;;;;;;;;;;15.50;99.90;;;;;;5035588;28;20215;-74
2022/10/23 10:45:29;;;;;;;;;;;15.50;99.90;;;;;;5052962;28;19917;-77
2022/10/23 10:48:13;;;;;;;;;;;15.60;99.90;;;;;;5051565;28;19917;-75
2022/10/23 10:50:38;;;;;;;;;;;15.60;99.90;;;;;;5053129;28;20505;-76
2022/10/23 10:53:07;;;;;;;;;;;15.60;99.90;;;;;;5033455;28;20016;-78
2022/10/23 10:55:33;;;;;;;;;;;15.70;99.90;;;;;;5050933;28;19924;-78
2022/10/23 10:58:02;;;;;;;;;;;15.70;99.90;;;;;;5053086;28;19924;-75
2022/10/23 11:00:29;;;;;;;;;;;15.70;99.90;;;;;;5053852;28;20225;-75
2022/10/23 11:03:00;;;;;;;;;;;15.70;99.90;;;;;;5033611;28;19921;-78
2022/10/23 11:05:36;;;;;;;;;;;15.80;99.90;;;;;;5034250;28;20223;-74
2022/10/23 11:08:01;;;;;;;;;;;15.80;99.90;;;;;;5046359;28;19947;-75
2022/10/23 11:10:27;;;;;;;;;;;15.80;99.90;;;;;;5035186;28;19939;-74
2022/10/23 11:12:53;;;;;;;;;;;15.80;99.90;;;;;;5025620;28;19913;-76
2022/10/23 11:15:27;;;;;;;;;;;15.90;99.90;;;;;;5054623;28;19916;-77
2022/10/23 11:17:56;;;;;;;;;;;15.90;99.90;;;;;;5032775;28;19912;-78
2022/10/23 11:20:38;;;;;;;;;;;16.00;99.90;;;;;;5055645;28;19912;-75
2022/10/23 11:23:04;;;;;;;;;;;15.90;99.90;;;;;;5024889;28;20223;-74
2022/10/23 11:25:46;;;;;;;;;;;16.00;99.90;;;;;;5052627;28;20007;-74
2022/10/23 11:28:27;;;;;;;;;;;16.10;99.90;;;;;;5051370;28;19920;-75
2022/10/23 11:30:58;;;;;;;;;;;16.10;99.90;;;;;;5049984;28;19927;-75
2022/10/23 11:33:33;;;;;;;;;;;16.20;99.90;;;;;;5050645;28;19917;-74
2022/10/23 11:36:25;;;;;;;;;;;16.30;99.90;;;;;;5052354;28;20003;-74
2022/10/23 11:38:57;;;;;;;;;;;16.30;99.90;;;;;;5005121;28;20505;-73
2022/10/23 11:41:25;;;;;;;;;;;16.40;99.90;;;;;;5004675;28;19925;-74
2022/10/23 11:43:56;;;;;;;;;;;16.50;99.90;;;;;;5007570;28;20172;-75
2022/10/23 11:46:21;;;;;;;;;;;16.50;99.90;;;;;;5008887;28;20100;-74
2022/10/23 11:48:48;;;;;;;;;;;16.60;99.90;;;;;;5008232;28;19913;-77
2022/10/23 11:51:30;;;;;;;;;;;16.70;99.90;;;;;;5006113;28;19913;-78
2022/10/23 11:54:14;;;;;;;;;;;16.80;99.90;;;;;;5005804;28;19914;-73
2022/10/23 11:56:51;;;;;;;;;;;16.80;99.90;;;;;;5005995;28;20366;-75
2022/10/23 11:59:17;;;;;;;;;;;16.90;99.90;;;;;;4992537;28;20008;-73
2022/10/23 12:01:44;;;;;;;;;;;16.90;99.90;;;;;;5009383;28;20000;-74
2022/10/23 12:04:12;;;;;;;;;;;17.00;99.90;;;;;;5001722;28;20368;-77
2022/10/23 12:06:43;;;;;;;;;;;17.10;99.90;;;;;;5007292;28;19961;-74
2022/10/23 12:09:23;;;;;;;;;;;17.10;99.90;;;;;;5007083;28;19979;-75
2022/10/23 12:12:01;;;;;;;;;;;17.20;99.90;;;;;;4993851;28;19917;-75
2022/10/23 12:14:26;;;;;;;;;;;17.30;99.90;;;;;;4984675;28;20000;-76
2022/10/23 12:16:52;;;;;;;;;;;17.30;99.90;;;;;;5052375;28;20004;-76
2022/10/23 12:19:19;;;;;;;;;;;17.30;99.90;;;;;;5052994;28;19917;-74
2022/10/23 12:21:45;;;;;;;;;;;17.40;99.90;;;;;;5050406;28;20007;-75
2022/10/23 12:24:28;;;;;;;;;;;17.30;99.90;;;;;;5028720;28;20032;-76
2022/10/23 12:27:01;;;;;;;;;;;17.40;99.90;;;;;;5017154;28;20369;-74
2022/10/23 12:29:42;;;;;;;;;;;17.40;99.90;;;;;;5048687;28;19913;-75
2022/10/23 12:32:26;;;;;;;;;;;17.40;99.90;;;;;;5047952;28;19999;-75
2022/10/23 12:35:07;;;;;;;;;;;17.40;99.90;;;;;;5045859;28;20339;-75
2022/10/23 12:37:38;;;;;;;;;;;17.50;99.90;;;;;;5034832;28;20326;-74
2022/10/23 12:40:08;;;;;;;;;;;17.50;99.90;;;;;;5049588;28;19917;-74
2022/10/23 12:42:34;;;;;;;;;;;17.60;99.90;;;;;;5030897;28;19967;-75
2022/10/23 12:45:20;;;;;;;;;;;17.60;99.90;;;;;;5048567;28;19967;-76
2022/10/23 12:47:46;;;;;;;;;;;17.60;99.90;;;;;;5043138;28;19913;-75
2022/10/23 12:50:16;;;;;;;;;;;17.60;99.90;;;;;;5052441;28;19913;-76
2022/10/23 12:52:49;;;;;;;;;;;17.70;99.90;;;;;;5051099;28;19920;-80
2022/10/23 12:55:18;;;;;;;;;;;17.70;99.90;;;;;;5048422;28;19908;-76
2022/10/23 12:57:44;;;;;;;;;;;17.70;99.90;;;;;;5047446;28;19917;-74
2022/10/23 13:00:21;;;;;;;;;;;17.70;99.90;;;;;;5035156;28;19909;-75
2022/10/23 13:02:56;;;;;;;;;;;17.70;99.90;;;;;;5049131;28;19921;-76
2022/10/23 13:05:23;;;;;;;;;;;17.70;99.90;;;;;;5052286;28;19913;-74
2022/10/23 13:07:51;;;;;;;;;;;17.70;99.90;;;;;;5048838;28;19916;-74
2022/10/23 13:10:19;;;;;;;;;;;17.70;99.90;;;;;;5052701;28;19976;-74
2022/10/23 13:13:03;;;;;;;;;;;17.70;99.90;;;;;;5051910;28;19920;-74
2022/10/23 13:15:43;;;;;;;;;;;17.80;99.90;;;;;;5048348;28;20221;-75
2022/10/23 13:18:13;;;;;;;;;;;17.80;99.90;;;;;;5048933;28;19913;-74
2022/10/23 13:20:50;;;;;;;;;;;17.90;99.90;;;;;;5054979;28;20377;-74
2022/10/23 13:23:30;;;;;;;;;;;18.00;99.90;;;;;;5052420;28;20007;-79
2022/10/23 13:25:58;;;;;;;;;;;18.10;99.90;;;;;;5052648;28;19924;-77
2022/10/23 13:28:28;;;;;;;;;;;18.10;99.90;;;;;;5048318;28;19916;-75
2022/10/23 13:31:04;;;;;;;;;;;18.20;99.90;;;;;;5050839;28;20535;-76
2022/10/23 13:33:34;;;;;;;;;;;18.20;99.90;;;;;;5037622;28;19931;-77
2022/10/23 13:36:02;;;;;;;;;;;18.20;99.90;;;;;;5043119;28;20207;-75
2022/10/23 13:38:28;;;;;;;;;;;18.30;99.90;;;;;;5057710;28;19948;-75
2022/10/23 13:40:56;;;;;;;;;;;18.30;99.90;;;;;;5037463;28;20004;-73
2022/10/23 13:43:23;;;;;;;;;;;18.30;99.90;;;;;;5055385;28;19939;-76
2022/10/23 13:45:49;;;;;;;;;;;18.30;99.90;;;;;;5054195;28;19916;-75
2022/10/23 13:48:15;;;;;;;;;;;18.30;99.90;;;;;;5038037;28;19939;-78
2022/10/23 13:50:41;;;;;;;;;;;18.30;99.90;;;;;;5052194;28;20221;-76
2022/10/23 13:53:11;;;;;;;;;;;18.30;99.90;;;;;;5037253;28;19966;-78
2022/10/23 13:55:39;;;;;;;;;;;18.40;99.90;;;;;;5037209;28;20235;-75
2022/10/23 13:58:05;;;;;;;;;;;18.40;99.90;;;;;;5052620;28;19913;-79
2022/10/23 14:00:30;;;;;;;;;;;18.40;99.90;;;;;;5047436;28;20271;-79
2022/10/23 14:02:56;;;;;;;;;;;18.40;99.90;;;;;;5030229;28;20417;-75
2022/10/23 14:05:21;;;;;;;;;;;18.40;99.90;;;;;;5048260;28;19920;-74
2022/10/23 14:07:47;;;;;;;;;;;18.50;99.90;;;;;;5054785;28;19916;-78
2022/10/23 14:10:12;;;;;;;;;;;18.50;99.90;;;;;;5055584;28;19916;-77
2022/10/23 14:12:41;;;;;;;;;;;18.50;99.90;;;;;;5054850;28;20006;-74
2022/10/23 14:15:07;;;;;;;;;;;18.50;99.90;;;;;;5055728;28;19916;-75
2022/10/23 14:17:34;;;;;;;;;;;18.50;99.90;;;;;;5037423;28;20189;-73
2022/10/23 14:19:59;;;;;;;;;;;18.40;99.90;;;;;;5055047;28;19917;-75
2022/10/23 14:22:26;;;;;;;;;;;18.40;99.90;;;;;;5037469;28;19928;-74
2022/10/23 14:24:51;;;;;;;;;;;18.50;99.90;;;;;;5055190;28;19912;-75
2022/10/23 14:27:17;;;;;;;;;;;18.50;99.90;;;;;;5054604;28;19940;-74